Time;durP1;ratioP1;P1;durP2;ratioP2;P2;SDS_P1;SDS_P2;PMS_P1;PMS_P2;Temp;Humidity;BMP_temperature;BMP_pressure;BME280_temperature;BME280_humidity;BME280_pressure;Samples;Min_cycle;Max_cycle;Signal;HPM_P1;HPM_P2
2024/01/18 00:00:34;;;;;;;3.70;3.10;;;;;;;;;;5111935;28;20220;-79
2024/01/18 00:03:01;;;;;;;3.67;2.90;;;;;;;;;;5112185;28;20760;-80
2024/01/18 00:05:28;;;;;;;3.43;2.70;;;;;;;;;;5112287;28;20666;-79
2024/01/18 00:07:55;;;;;;;3.53;2.80;;;;;;;;;;5111702;28;20280;-81
2024/01/18 00:10:26;;;;;;;3.67;2.97;;;;;;;;;;5111513;28;20239;-80
2024/01/18 00:12:54;;;;;;;5.60;4.13;;;;;;;;;;5111184;28;20231;-79
2024/01/18 00:15:21;;;;;;;4.77;3.90;;;;;;;;;;5112213;28;20293;-79
2024/01/18 00:17:49;;;;;;;2.73;2.43;;;;;;;;;;5111619;28;20193;-80
2024/01/18 00:20:16;;;;;;;3.37;2.50;;;;;;;;;;5111603;28;20759;-80
2024/01/18 00:22:43;;;;;;;3.70;2.90;;;;;;;;;;5111939;28;20751;-80
2024/01/18 00:25:11;;;;;;;3.80;2.80;;;;;;;;;;5111356;28;20727;-80
2024/01/18 00:27:39;;;;;;;4.03;2.67;;;;;;;;;;5111946;28;20323;-80
2024/01/18 00:30:07;;;;;;;2.73;2.27;;;;;;;;;;5112149;28;20288;-80
2024/01/18 00:32:35;;;;;;;3.27;2.33;;;;;;;;;;5111370;28;20672;-79
2024/01/18 00:35:02;;;;;;;3.57;2.83;;;;;;;;;;5111614;28;20201;-80
2024/01/18 00:37:29;;;;;;;3.33;2.17;;;;;;;;;;5111451;28;20564;-80
2024/01/18 00:39:56;;;;;;;3.87;2.40;;;;;;;;;;5111627;28;20218;-80
2024/01/18 00:42:23;;;;;;;3.03;2.40;;;;;;;;;;5111793;28;20284;-80
2024/01/18 00:44:52;;;;;;;2.80;2.23;;;;;;;;;;5111684;28;20194;-80
2024/01/18 00:47:19;;;;;;;2.97;2.30;;;;;;;;;;5111510;28;20320;-81
2024/01/18 00:49:46;;;;;;;2.70;2.10;;;;;;;;;;5111055;28;20730;-79
2024/01/18 00:52:16;;;;;;;2.20;1.87;;;;;;;;;;5111521;28;20196;-79
2024/01/18 00:54:43;;;;;;;1.90;1.63;;;;;;;;;;5111140;28;20604;-81
2024/01/18 00:57:10;;;;;;;2.20;1.77;;;;;;;;;;5111816;28;20292;-80
2024/01/18 00:59:38;;;;;;;2.30;1.97;;;;;;;;;;5111651;28;20273;-80
2024/01/18 01:02:08;;;;;;;2.17;1.70;;;;;;;;;;5111590;28;20245;-81
2024/01/18 01:04:35;;;;;;;2.20;1.70;;;;;;;;;;5111335;28;20285;-79
2024/01/18 01:07:06;;;;;;;1.87;1.60;;;;;;;;;;5111070;28;20324;-80
2024/01/18 01:09:33;;;;;;;1.90;1.50;;;;;;;;;;5111280;28;20288;-81
2024/01/18 01:12:00;;;;;;;1.80;1.40;;;;;;;;;;5111106;28;20294;-80
2024/01/18 01:14:27;;;;;;;2.20;1.40;;;;;;;;;;5111417;28;20194;-80
2024/01/18 01:16:54;;;;;;;2.10;1.37;;;;;;;;;;5111493;28;20277;-81
2024/01/18 01:19:23;;;;;;;1.87;1.67;;;;;;;;;;5111390;28;20686;-80
2024/01/18 01:21:50;;;;;;;1.87;1.57;;;;;;;;;;5111400;28;20568;-81
2024/01/18 01:24:17;;;;;;;1.70;1.40;;;;;;;;;;5112190;28;20236;-81
2024/01/18 01:26:44;;;;;;;1.63;1.47;;;;;;;;;;5115082;28;20311;-80
2024/01/18 01:29:12;;;;;;;1.80;1.33;;;;;;;;;;5115084;27;20569;-81
2024/01/18 01:31:39;;;;;;;2.13;1.70;;;;;;;;;;5114956;28;20280;-81
2024/01/18 01:34:06;;;;;;;1.90;1.40;;;;;;;;;;5115397;28;20282;-82
2024/01/18 01:36:35;;;;;;;1.87;1.40;;;;;;;;;;5114433;28;20210;-81
2024/01/18 01:39:03;;;;;;;2.13;1.60;;;;;;;;;;5114832;28;20232;-80
2024/01/18 01:41:31;;;;;;;4.03;1.70;;;;;;;;;;5115752;28;20628;-81
2024/01/18 01:43:59;;;;;;;2.20;1.40;;;;;;;;;;5114273;28;20201;-82
2024/01/18 01:46:26;;;;;;;1.60;1.40;;;;;;;;;;5114789;28;20205;-82
2024/01/18 01:48:53;;;;;;;1.50;1.30;;;;;;;;;;5114427;28;20226;-81
2024/01/18 01:51:21;;;;;;;1.50;1.30;;;;;;;;;;5114280;28;20280;-82
2024/01/18 01:53:49;;;;;;;1.30;1.20;;;;;;;;;;5114335;28;20202;-83
2024/01/18 01:56:16;;;;;;;2.20;1.40;;;;;;;;;;5114759;28;20202;-81
2024/01/18 01:58:44;;;;;;;2.37;1.20;;;;;;;;;;5114328;28;20243;-82
2024/01/18 02:01:11;;;;;;;1.67;1.43;;;;;;;;;;5114146;28;20798;-82
2024/01/18 02:03:38;;;;;;;1.50;1.40;;;;;;;;;;5114680;28;20284;-81
2024/01/18 02:06:06;;;;;;;2.00;1.50;;;;;;;;;;5113967;28;20224;-82
2024/01/18 02:08:33;;;;;;;2.57;1.60;;;;;;;;;;5114300;28;20327;-81
2024/01/18 02:11:02;;;;;;;2.10;1.60;;;;;;;;;;5114357;28;20281;-82
2024/01/18 02:13:31;;;;;;;1.60;1.40;;;;;;;;;;5114294;28;20260;-82
2024/01/18 02:15:58;;;;;;;2.50;1.80;;;;;;;;;;5114026;28;20196;-81
2024/01/18 02:18:25;;;;;;;2.30;1.73;;;;;;;;;;5114039;28;20312;-81
2024/01/18 02:20:53;;;;;;;2.47;1.60;;;;;;;;;;5113900;28;20200;-82
2024/01/18 02:23:20;;;;;;;2.17;1.67;;;;;;;;;;5114257;28;20222;-81
2024/01/18 02:25:48;;;;;;;2.93;1.70;;;;;;;;;;5114388;28;20282;-81
2024/01/18 02:28:17;;;;;;;2.10;1.70;;;;;;;;;;5113584;28;20229;-81
2024/01/18 02:30:44;;;;;;;1.73;1.63;;;;;;;;;;5113915;28;20209;-81
2024/01/18 02:33:11;;;;;;;2.57;1.87;;;;;;;;;;5113681;28;20190;-82
2024/01/18 02:35:38;;;;;;;2.20;1.70;;;;;;;;;;5112975;27;20233;-82
2024/01/18 02:38:06;;;;;;;2.37;1.87;;;;;;;;;;5113781;28;20209;-83
2024/01/18 02:40:33;;;;;;;1.80;1.70;;;;;;;;;;5113260;27;20760;-83
2024/01/18 02:43:02;;;;;;;2.20;2.00;;;;;;;;;;5113435;28;20290;-83
2024/01/18 02:45:30;;;;;;;3.17;2.43;;;;;;;;;;5113593;28;20667;-82
2024/01/18 02:47:57;;;;;;;2.63;2.40;;;;;;;;;;5113597;28;20695;-82
2024/01/18 02:50:25;;;;;;;2.70;2.43;;;;;;;;;;5113079;28;20189;-81
2024/01/18 02:52:52;;;;;;;3.37;2.80;;;;;;;;;;5113603;28;20229;-83
2024/01/18 02:55:19;;;;;;;3.27;2.83;;;;;;;;;;5113470;28;20193;-82
2024/01/18 02:57:46;;;;;;;3.43;2.67;;;;;;;;;;5112926;28;20202;-82
2024/01/18 03:00:16;;;;;;;3.90;3.10;;;;;;;;;;5113408;28;20295;-82
2024/01/18 03:02:43;;;;;;;3.40;3.00;;;;;;;;;;5113463;28;20267;-81
2024/01/18 03:05:12;;;;;;;3.93;2.83;;;;;;;;;;5112572;28;20288;-82
2024/01/18 03:07:39;;;;;;;4.20;3.30;;;;;;;;;;5112680;28;20228;-82
2024/01/18 03:10:08;;;;;;;4.50;3.00;;;;;;;;;;5113051;28;20285;-82
2024/01/18 03:12:37;;;;;;;4.50;3.40;;;;;;;;;;5112858;28;20269;-81
2024/01/18 03:15:05;;;;;;;3.90;3.47;;;;;;;;;;5113150;28;20201;-81
2024/01/18 03:17:34;;;;;;;4.57;3.33;;;;;;;;;;5113234;28;20201;-82
2024/01/18 03:20:06;;;;;;;3.63;3.17;;;;;;;;;;5112447;28;20237;-82
2024/01/18 03:22:34;;;;;;;4.63;3.37;;;;;;;;;;5112969;28;20683;-82
2024/01/18 03:25:01;;;;;;;4.07;3.27;;;;;;;;;;5112771;28;20256;-82
2024/01/18 03:27:29;;;;;;;3.87;3.07;;;;;;;;;;5112927;28;20198;-82
2024/01/18 03:29:57;;;;;;;3.80;3.30;;;;;;;;;;5112753;28;20208;-82
2024/01/18 03:32:24;;;;;;;5.03;3.50;;;;;;;;;;5112366;28;20288;-82
2024/01/18 03:34:53;;;;;;;4.70;3.80;;;;;;;;;;5109047;28;20202;-82
2024/01/18 03:37:20;;;;;;;4.30;3.60;;;;;;;;;;5101214;28;20293;-81
2024/01/18 03:39:47;;;;;;;4.70;3.70;;;;;;;;;;5092235;28;20198;-82
2024/01/18 03:42:15;;;;;;;4.97;3.63;;;;;;;;;;5092274;28;20285;-82
2024/01/18 03:44:42;;;;;;;5.40;3.80;;;;;;;;;;5092037;28;20653;-82
2024/01/18 03:47:09;;;;;;;5.27;3.93;;;;;;;;;;5090959;28;20200;-82
2024/01/18 03:49:36;;;;;;;5.53;4.30;;;;;;;;;;5091926;28;20268;-82
2024/01/18 03:52:05;;;;;;;4.83;4.27;;;;;;;;;;5092583;28;20220;-82
2024/01/18 03:54:32;;;;;;;5.63;4.47;;;;;;;;;;5091904;28;20289;-81
2024/01/18 03:56:59;;;;;;;5.20;4.50;;;;;;;;;;5091669;28;20197;-82
2024/01/18 03:59:26;;;;;;;6.90;4.80;;;;;;;;;;5092044;28;20202;-83
2024/01/18 04:01:54;;;;;;;5.57;4.60;;;;;;;;;;5091484;28;20289;-82
2024/01/18 04:04:21;;;;;;;6.80;5.03;;;;;;;;;;5092109;28;20285;-82
2024/01/18 04:06:49;;;;;;;6.13;4.80;;;;;;;;;;5091696;28;20198;-82
2024/01/18 04:09:17;;;;;;;6.10;5.03;;;;;;;;;;5091458;28;20226;-82
2024/01/18 04:11:44;;;;;;;6.70;5.23;;;;;;;;;;5091989;28;20202;-82
2024/01/18 04:14:12;;;;;;;6.43;5.20;;;;;;;;;;5091674;28;20769;-82
2024/01/18 04:16:39;;;;;;;5.93;4.97;;;;;;;;;;5091315;28;20233;-82
2024/01/18 04:19:06;;;;;;;6.63;5.10;;;;;;;;;;5091733;28;20208;-82
2024/01/18 04:21:33;;;;;;;6.83;5.40;;;;;;;;;;5091679;28;20194;-83
2024/01/18 04:24:00;;;;;;;6.13;5.27;;;;;;;;;;5091533;28;20226;-82
2024/01/18 04:26:31;;;;;;;6.37;4.87;;;;;;;;;;5091537;28;20635;-82
2024/01/18 04:28:58;;;;;;;6.40;5.60;;;;;;;;;;5091532;28;20598;-82
2024/01/18 04:31:25;;;;;;;7.00;5.23;;;;;;;;;;5091531;28;20237;-82
2024/01/18 04:33:52;;;;;;;6.57;5.30;;;;;;;;;;5091727;28;20229;-82
2024/01/18 04:36:20;;;;;;;7.83;5.47;;;;;;;;;;5097433;28;20221;-81
2024/01/18 04:38:47;;;;;;;6.30;5.27;;;;;;;;;;5111329;28;20651;-82
2024/01/18 04:41:15;;;;;;;6.33;5.40;;;;;;;;;;5111909;28;20235;-81
2024/01/18 04:43:43;;;;;;;6.67;5.50;;;;;;;;;;5111897;28;20284;-82
2024/01/18 04:46:11;;;;;;;7.13;4.93;;;;;;;;;;5111277;28;20217;-82
2024/01/18 04:48:38;;;;;;;6.17;5.10;;;;;;;;;;5111922;28;20225;-82
2024/01/18 04:51:07;;;;;;;5.47;4.90;;;;;;;;;;5111713;28;20375;-82
2024/01/18 04:53:34;;;;;;;7.20;5.17;;;;;;;;;;5111916;28;20284;-83
2024/01/18 04:56:01;;;;;;;5.70;4.70;;;;;;;;;;5111319;28;20670;-83
2024/01/18 04:58:28;;;;;;;7.60;5.43;;;;;;;;;;5113449;28;20276;-82
2024/01/18 05:00:57;;;;;;;6.07;5.37;;;;;;;;;;5115671;28;20281;-82
2024/01/18 05:03:25;;;;;;;7.57;5.90;;;;;;;;;;5115011;28;20297;-81
2024/01/18 05:05:52;;;;;;;7.10;5.97;;;;;;;;;;5115405;28;20280;-83
2024/01/18 05:08:20;;;;;;;8.40;5.87;;;;;;;;;;5115263;28;20312;-82
2024/01/18 05:10:47;;;;;;;9.63;6.87;;;;;;;;;;5115281;28;20669;-83
2024/01/18 05:13:16;;;;;;;9.50;6.70;;;;;;;;;;5115438;28;20259;-81
2024/01/18 05:15:44;;;;;;;9.30;6.73;;;;;;;;;;5114856;28;20352;-83
2024/01/18 05:18:13;;;;;;;9.20;6.83;;;;;;;;;;5115308;28;20200;-82
2024/01/18 05:20:41;;;;;;;7.40;6.30;;;;;;;;;;5115118;28;20194;-82
2024/01/18 05:23:08;;;;;;;10.20;6.93;;;;;;;;;;5114945;28;20575;-83
2024/01/18 05:25:35;;;;;;;8.97;7.13;;;;;;;;;;5115259;28;20566;-83
2024/01/18 05:28:02;;;;;;;9.20;6.87;;;;;;;;;;5115298;27;20289;-83
2024/01/18 05:30:30;;;;;;;10.57;7.40;;;;;;;;;;5114367;28;20639;-82
2024/01/18 05:32:57;;;;;;;9.33;7.43;;;;;;;;;;5115002;28;20238;-82
2024/01/18 05:35:25;;;;;;;10.03;7.67;;;;;;;;;;5115118;28;20292;-82
2024/01/18 05:37:52;;;;;;;11.70;8.30;;;;;;;;;;5114726;28;20208;-83
2024/01/18 05:40:22;;;;;;;11.23;8.30;;;;;;;;;;5114877;28;20583;-82
2024/01/18 05:42:49;;;;;;;11.30;8.40;;;;;;;;;;5115005;28;20279;-83
2024/01/18 05:45:17;;;;;;;13.90;9.97;;;;;;;;;;5114977;28;20205;-83
2024/01/18 05:47:44;;;;;;;15.03;10.30;;;;;;;;;;5114707;28;20250;-83
2024/01/18 05:50:11;;;;;;;15.43;9.77;;;;;;;;;;5114248;27;20229;-82
2024/01/18 05:52:40;;;;;;;13.47;9.90;;;;;;;;;;5114863;28;20201;-82
2024/01/18 05:55:07;;;;;;;14.67;10.53;;;;;;;;;;5114825;28;20196;-82
2024/01/18 05:57:36;;;;;;;16.50;10.60;;;;;;;;;;5114096;28;20232;-81
2024/01/18 06:00:05;;;;;;;18.37;11.37;;;;;;;;;;5114562;28;20204;-82
2024/01/18 06:02:32;;;;;;;16.80;11.27;;;;;;;;;;5114439;28;20208;-82
2024/01/18 06:05:00;;;;;;;18.63;11.80;;;;;;;;;;5114587;28;20198;-83
2024/01/18 06:07:28;;;;;;;19.67;12.37;;;;;;;;;;5114439;28;20204;-82
2024/01/18 06:09:56;;;;;;;17.90;11.90;;;;;;;;;;5113636;28;20225;-82
2024/01/18 06:12:23;;;;;;;19.47;12.20;;;;;;;;;;5113612;27;20736;-82
2024/01/18 06:14:50;;;;;;;17.73;12.43;;;;;;;;;;5114320;28;20289;-81
2024/01/18 06:17:18;;;;;;;20.50;12.73;;;;;;;;;;5114001;28;20281;-81
2024/01/18 06:19:45;;;;;;;18.37;12.83;;;;;;;;;;5113977;28;20194;-81
2024/01/18 06:22:12;;;;;;;19.47;12.63;;;;;;;;;;5114474;28;20287;-81
2024/01/18 06:24:39;;;;;;;21.73;12.40;;;;;;;;;;5113852;28;20239;-81
2024/01/18 06:27:08;;;;;;;21.33;13.10;;;;;;;;;;5113559;28;20232;-80
2024/01/18 06:29:36;;;;;;;21.13;13.43;;;;;;;;;;5113730;28;20879;-81
2024/01/18 06:32:03;;;;;;;19.80;12.87;;;;;;;;;;5113924;28;20290;-81
2024/01/18 06:34:30;;;;;;;22.70;14.20;;;;;;;;;;5114070;28;20193;-81
2024/01/18 06:36:58;;;;;;;22.77;13.30;;;;;;;;;;5113871;28;20288;-79
2024/01/18 06:39:25;;;;;;;21.13;14.00;;;;;;;;;;5113584;28;20222;-80
2024/01/18 06:41:52;;;;;;;21.73;12.57;;;;;;;;;;5113609;28;20229;-81
2024/01/18 06:44:20;;;;;;;19.80;12.73;;;;;;;;;;5113392;28;20773;-81
2024/01/18 06:46:48;;;;;;;18.87;12.50;;;;;;;;;;5113472;28;20276;-81
2024/01/18 06:49:15;;;;;;;25.50;14.00;;;;;;;;;;5113367;28;20260;-81
2024/01/18 06:51:42;;;;;;;21.23;13.37;;;;;;;;;;5113594;28;20295;-82
2024/01/18 06:54:09;;;;;;;23.40;13.20;;;;;;;;;;5113553;28;20677;-81
2024/01/18 06:56:37;;;;;;;19.77;13.20;;;;;;;;;;5112944;28;20204;-81
2024/01/18 06:59:05;;;;;;;23.20;14.47;;;;;;;;;;5113027;28;20251;-81
2024/01/18 07:01:34;;;;;;;22.67;14.40;;;;;;;;;;5113270;28;20209;-80
2024/01/18 07:04:01;;;;;;;25.43;13.83;;;;;;;;;;5113108;28;20194;-81
2024/01/18 07:06:29;;;;;;;22.27;14.10;;;;;;;;;;5113383;28;20247;-81
2024/01/18 07:08:56;;;;;;;23.27;14.80;;;;;;;;;;5113605;28;20275;-81
2024/01/18 07:11:24;;;;;;;22.67;13.77;;;;;;;;;;5112632;28;20689;-81
2024/01/18 07:13:51;;;;;;;21.53;13.57;;;;;;;;;;5112829;28;20325;-81
2024/01/18 07:16:18;;;;;;;23.77;14.27;;;;;;;;;;5113057;28;20228;-81
2024/01/18 07:18:47;;;;;;;21.93;14.03;;;;;;;;;;5113194;28;20200;-80
2024/01/18 07:21:16;;;;;;;21.70;13.33;;;;;;;;;;5113175;28;20235;-82
2024/01/18 07:23:43;;;;;;;20.53;13.77;;;;;;;;;;5113027;28;20197;-82
2024/01/18 07:26:11;;;;;;;19.87;13.23;;;;;;;;;;5112976;28;20247;-81
2024/01/18 07:28:38;;;;;;;25.40;14.67;;;;;;;;;;5112574;28;20229;-82
2024/01/18 07:31:05;;;;;;;22.43;14.00;;;;;;;;;;5112781;28;20194;-81
2024/01/18 07:33:32;;;;;;;23.13;14.27;;;;;;;;;;5113375;28;20221;-80
2024/01/18 07:36:01;;;;;;;23.57;15.00;;;;;;;;;;5112795;28;20259;-80
2024/01/18 07:38:29;;;;;;;23.43;14.37;;;;;;;;;;5112605;28;20193;-81
2024/01/18 07:40:56;;;;;;;23.33;15.50;;;;;;;;;;5112886;28;20293;-81
2024/01/18 07:43:23;;;;;;;20.77;14.43;;;;;;;;;;5112747;28;20194;-81
2024/01/18 07:45:51;;;;;;;22.90;15.23;;;;;;;;;;5112724;28;20232;-81
2024/01/18 07:48:18;;;;;;;20.07;14.20;;;;;;;;;;5112543;28;20204;-81
2024/01/18 07:50:45;;;;;;;24.70;14.70;;;;;;;;;;5112188;28;20225;-81
2024/01/18 07:53:14;;;;;;;26.10;15.20;;;;;;;;;;5112908;28;20213;-81
2024/01/18 07:55:42;;;;;;;23.77;14.63;;;;;;;;;;5112009;28;20281;-81
2024/01/18 07:58:10;;;;;;;22.90;14.50;;;;;;;;;;5112309;28;20253;-81
2024/01/18 08:00:37;;;;;;;20.57;14.07;;;;;;;;;;5112001;28;20197;-81
2024/01/18 08:03:04;;;;;;;24.00;15.13;;;;;;;;;;5112244;28;20277;-81
2024/01/18 08:05:31;;;;;;;25.03;15.40;;;;;;;;;;5112387;28;20655;-81
2024/01/18 08:07:58;;;;;;;24.73;16.50;;;;;;;;;;5111684;28;20225;-81
2024/01/18 08:10:27;;;;;;;26.73;16.77;;;;;;;;;;5111918;28;20737;-80
2024/01/18 08:12:54;;;;;;;22.97;16.10;;;;;;;;;;5112105;28;20237;-81
2024/01/18 08:15:22;;;;;;;26.10;15.90;;;;;;;;;;5112432;28;20229;-81
2024/01/18 08:17:49;;;;;;;25.23;15.83;;;;;;;;;;5112174;28;20186;-81
2024/01/18 08:20:16;;;;;;;26.80;15.53;;;;;;;;;;5112045;28;20280;-81
2024/01/18 08:22:44;;;;;;;24.27;16.00;;;;;;;;;;5111764;28;20220;-80
2024/01/18 08:25:11;;;;;;;23.77;16.23;;;;;;;;;;5112436;28;20205;-81
2024/01/18 08:27:39;;;;;;;24.27;15.57;;;;;;;;;;5111957;28;20277;-81
2024/01/18 08:30:07;;;;;;;23.43;15.43;;;;;;;;;;5112031;28;20225;-81
2024/01/18 08:32:34;;;;;;;23.30;16.00;;;;;;;;;;5111704;28;20201;-80
2024/01/18 08:35:02;;;;;;;23.20;15.83;;;;;;;;;;5111886;28;20215;-81
2024/01/18 08:37:29;;;;;;;22.33;15.83;;;;;;;;;;5111496;28;20196;-81
2024/01/18 08:39:56;;;;;;;24.03;16.30;;;;;;;;;;5111766;28;20291;-81
2024/01/18 08:42:23;;;;;;;21.83;15.50;;;;;;;;;;5111953;28;20281;-81
2024/01/18 08:44:52;;;;;;;21.00;15.10;;;;;;;;;;5111480;28;20190;-81
2024/01/18 08:47:19;;;;;;;21.87;15.27;;;;;;;;;;5111966;28;20194;-80
2024/01/18 08:49:47;;;;;;;20.43;15.03;;;;;;;;;;5111892;28;20244;-81
2024/01/18 08:52:14;;;;;;;18.70;14.17;;;;;;;;;;5111566;28;20284;-81
2024/01/18 08:54:43;;;;;;;15.40;13.07;;;;;;;;;;5111738;28;20197;-81
2024/01/18 08:57:10;;;;;;;15.90;12.33;;;;;;;;;;5111611;28;20204;-81
2024/01/18 08:59:37;;;;;;;15.63;12.50;;;;;;;;;;5111610;28;20259;-81
2024/01/18 09:02:06;;;;;;;13.50;11.60;;;;;;;;;;5111903;28;20309;-81
2024/01/18 09:04:33;;;;;;;13.53;11.93;;;;;;;;;;5111766;28;20193;-80
2024/01/18 09:07:00;;;;;;;13.03;10.97;;;;;;;;;;5111181;28;20233;-82
2024/01/18 09:09:29;;;;;;;14.87;11.77;;;;;;;;;;5111628;28;20244;-80
2024/01/18 09:11:56;;;;;;;13.50;11.30;;;;;;;;;;5111332;28;20701;-81
2024/01/18 09:14:24;;;;;;;16.43;12.20;;;;;;;;;;5111489;28;20314;-81
2024/01/18 09:16:51;;;;;;;14.23;12.07;;;;;;;;;;5111743;28;20200;-81
2024/01/18 09:19:21;;;;;;;15.50;12.47;;;;;;;;;;5111272;28;20677;-80
2024/01/18 09:21:48;;;;;;;17.07;13.07;;;;;;;;;;5111290;28;20190;-81
2024/01/18 09:24:15;;;;;;;16.00;12.43;;;;;;;;;;5111579;28;20285;-82
2024/01/18 09:26:42;;;;;;;17.10;13.00;;;;;;;;;;5111383;28;20221;-81
2024/01/18 09:29:09;;;;;;;15.30;12.17;;;;;;;;;;5111449;28;20288;-82
2024/01/18 09:31:37;;;;;;;16.47;12.47;;;;;;;;;;5111203;28;20228;-81
2024/01/18 09:34:04;;;;;;;16.30;13.13;;;;;;;;;;5111320;28;20233;-81
2024/01/18 09:36:32;;;;;;;15.80;12.87;;;;;;;;;;5110919;28;20198;-81
2024/01/18 09:39:00;;;;;;;16.60;12.43;;;;;;;;;;5111279;28;20743;-80
2024/01/18 09:41:29;;;;;;;18.03;12.33;;;;;;;;;;5110886;28;20204;-81
2024/01/18 09:43:59;;;;;;;15.40;12.30;;;;;;;;;;5111316;28;20198;-81
2024/01/18 09:46:27;;;;;;;16.33;12.17;;;;;;;;;;5114502;28;20300;-81
2024/01/18 09:48:54;;;;;;;19.20;12.40;;;;;;;;;;5114881;28;20198;-82
2024/01/18 09:51:23;;;;;;;16.07;11.67;;;;;;;;;;5113895;28;20351;-81
2024/01/18 09:53:54;;;;;;;14.67;11.13;;;;;;;;;;5114894;28;20272;-81
2024/01/18 09:56:23;;;;;;;14.33;11.40;;;;;;;;;;5114415;28;20663;-81
2024/01/18 09:58:50;;;;;;;14.33;11.43;;;;;;;;;;5114727;27;20783;-81
2024/01/18 10:01:20;;;;;;;15.30;11.30;;;;;;;;;;5114406;28;20207;-81
2024/01/18 10:03:48;;;;;;;13.13;10.47;;;;;;;;;;5114544;28;20198;-81
2024/01/18 10:06:15;;;;;;;13.53;10.43;;;;;;;;;;5114512;28;20194;-82
2024/01/18 10:08:43;;;;;;;14.10;10.63;;;;;;;;;;5114982;28;20193;-81
2024/01/18 10:11:11;;;;;;;13.53;10.60;;;;;;;;;;5114488;28;20319;-81
2024/01/18 10:13:52;;;;;;;15.47;11.07;;;;;;;;;;5114104;28;20235;-81
2024/01/18 10:16:27;;;;;;;14.63;9.90;;;;;;;;;;5114363;28;20197;-80
2024/01/18 10:18:54;;;;;;;15.27;10.63;;;;;;;;;;5114039;28;20193;-81
2024/01/18 10:21:22;;;;;;;13.77;10.73;;;;;;;;;;5114577;28;20288;-81
2024/01/18 10:23:49;;;;;;;15.73;10.47;;;;;;;;;;5114223;28;20200;-81
2024/01/18 10:26:18;;;;;;;16.20;10.03;;;;;;;;;;5114796;27;20189;-82
2024/01/18 10:28:45;;;;;;;14.70;10.50;;;;;;;;;;5114440;28;20200;-81
2024/01/18 10:31:13;;;;;;;14.13;9.87;;;;;;;;;;5113854;28;20259;-82
2024/01/18 10:33:41;;;;;;;14.93;10.17;;;;;;;;;;5113763;28;20206;-82
2024/01/18 10:36:08;;;;;;;15.27;9.40;;;;;;;;;;5114117;28;20572;-82
2024/01/18 10:38:38;;;;;;;12.97;9.13;;;;;;;;;;5113675;28;20240;-82
2024/01/18 10:41:06;;;;;;;11.33;8.90;;;;;;;;;;5113734;28;20186;-82
2024/01/18 10:43:34;;;;;;;11.63;8.77;;;;;;;;;;5114160;28;20284;-81
2024/01/18 10:46:02;;;;;;;11.70;8.73;;;;;;;;;;5114043;28;20232;-81
2024/01/18 10:48:31;;;;;;;15.17;8.60;;;;;;;;;;5113148;28;20632;-82
2024/01/18 10:50:58;;;;;;;13.70;8.23;;;;;;;;;;5113842;28;20751;-82
2024/01/18 10:53:25;;;;;;;14.87;8.50;;;;;;;;;;5113577;28;20190;-82
2024/01/18 10:55:53;;;;;;;12.77;8.07;;;;;;;;;;5113018;28;20200;-82
2024/01/18 10:58:20;;;;;;;10.30;7.63;;;;;;;;;;5113534;28;20649;-81
2024/01/18 11:00:49;;;;;;;13.20;8.20;;;;;;;;;;5114002;28;20285;-82
2024/01/18 11:03:17;;;;;;;10.10;7.23;;;;;;;;;;5113204;28;20205;-81
2024/01/18 11:05:45;;;;;;;9.83;7.20;;;;;;;;;;5113156;28;20201;-81
2024/01/18 11:08:12;;;;;;;9.53;6.70;;;;;;;;;;5113175;28;20674;-81
2024/01/18 11:10:40;;;;;;;11.07;7.10;;;;;;;;;;5113144;28;20217;-81
2024/01/18 11:13:08;;;;;;;10.83;5.70;;;;;;;;;;5112985;28;20309;-81
2024/01/18 11:15:36;;;;;;;12.63;6.50;;;;;;;;;;5113295;28;20225;-81
2024/01/18 11:18:11;;;;;;;11.67;5.90;;;;;;;;;;5112952;27;20201;-82
2024/01/18 11:20:53;;;;;;;10.83;5.97;;;;;;;;;;5113599;28;20295;-82
2024/01/18 11:23:23;;;;;;;9.17;5.90;;;;;;;;;;5112685;28;20229;-81
2024/01/18 11:25:50;;;;;;;10.20;6.17;;;;;;;;;;5112566;28;20256;-82
2024/01/18 11:28:22;;;;;;;11.30;6.47;;;;;;;;;;5112784;28;20238;-81
2024/01/18 11:30:50;;;;;;;12.40;6.07;;;;;;;;;;5112935;28;20320;-81
2024/01/18 11:33:19;;;;;;;10.37;6.20;;;;;;;;;;5112507;28;20190;-81
2024/01/18 11:35:46;;;;;;;11.27;6.13;;;;;;;;;;5112701;28;20685;-81
2024/01/18 11:38:20;;;;;;;10.83;6.50;;;;;;;;;;5112829;28;20193;-81
2024/01/18 11:40:48;;;;;;;10.07;6.17;;;;;;;;;;5112724;28;20193;-81
2024/01/18 11:43:15;;;;;;;7.47;5.67;;;;;;;;;;5112779;28;20250;-81
2024/01/18 11:45:44;;;;;;;11.50;5.73;;;;;;;;;;5112281;28;20293;-82
2024/01/18 11:48:13;;;;;;;8.03;5.43;;;;;;;;;;5112374;28;20197;-82
2024/01/18 11:50:42;;;;;;;9.07;5.53;;;;;;;;;;5110996;28;20316;-80
2024/01/18 11:53:11;;;;;;;13.30;6.10;;;;;;;;;;5112451;28;20225;-82
2024/01/18 11:55:39;;;;;;;10.17;5.97;;;;;;;;;;5112167;28;20200;-82
2024/01/18 11:58:08;;;;;;;10.10;5.70;;;;;;;;;;5112338;28;20285;-82
2024/01/18 12:00:35;;;;;;;8.40;5.07;;;;;;;;;;5112360;28;20203;-81
2024/01/18 12:03:03;;;;;;;6.57;4.43;;;;;;;;;;5112033;28;20682;-81
2024/01/18 12:05:30;;;;;;;8.20;4.33;;;;;;;;;;5112369;28;20658;-81
2024/01/18 12:07:58;;;;;;;8.07;4.87;;;;;;;;;;5111905;28;20296;-82
2024/01/18 12:10:26;;;;;;;6.27;3.80;;;;;;;;;;5112067;28;20261;-81
2024/01/18 12:12:54;;;;;;;6.07;3.80;;;;;;;;;;5112028;28;20236;-81
2024/01/18 12:15:21;;;;;;;7.57;4.30;;;;;;;;;;5112256;28;20233;-81
2024/01/18 12:17:49;;;;;;;7.90;3.67;;;;;;;;;;5112272;28;20215;-81
2024/01/18 12:20:17;;;;;;;5.40;3.50;;;;;;;;;;5111876;28;20199;-82
2024/01/18 12:22:44;;;;;;;7.40;3.80;;;;;;;;;;5112202;28;20198;-81
2024/01/18 12:25:13;;;;;;;7.30;4.03;;;;;;;;;;5111840;28;20197;-81
2024/01/18 12:27:41;;;;;;;6.27;3.60;;;;;;;;;;5111843;28;20221;-81
2024/01/18 12:30:09;;;;;;;4.50;3.30;;;;;;;;;;5111780;28;20197;-82
2024/01/18 12:32:37;;;;;;;6.83;3.10;;;;;;;;;;5112168;28;20202;-81
2024/01/18 12:35:04;;;;;;;5.03;3.30;;;;;;;;;;5112000;28;20197;-81
2024/01/18 12:37:32;;;;;;;7.93;2.83;;;;;;;;;;5111870;28;20289;-81
2024/01/18 12:39:59;;;;;;;3.77;2.73;;;;;;;;;;5111580;28;20201;-81
2024/01/18 12:42:27;;;;;;;5.30;2.73;;;;;;;;;;5111846;28;20756;-82
2024/01/18 12:44:57;;;;;;;4.37;2.40;;;;;;;;;;5111476;28;20190;-81
2024/01/18 12:47:24;;;;;;;3.97;2.20;;;;;;;;;;5111961;28;20190;-81
2024/01/18 12:49:55;;;;;;;4.77;2.10;;;;;;;;;;5111617;28;20288;-81
2024/01/18 12:52:22;;;;;;;5.20;2.00;;;;;;;;;;5111885;28;20225;-82
2024/01/18 12:54:49;;;;;;;6.67;2.03;;;;;;;;;;5111765;28;20240;-81
2024/01/18 12:57:16;;;;;;;6.13;2.10;;;;;;;;;;5111834;28;20641;-82
2024/01/18 12:59:45;;;;;;;3.23;1.90;;;;;;;;;;5111598;28;20256;-82
2024/01/18 13:02:19;;;;;;;3.60;1.70;;;;;;;;;;5111555;28;20231;-82
2024/01/18 13:04:50;;;;;;;6.87;2.13;;;;;;;;;;5111564;28;20198;-81
2024/01/18 13:07:17;;;;;;;6.67;2.10;;;;;;;;;;5111928;28;20288;-81
2024/01/18 13:09:45;;;;;;;6.03;2.00;;;;;;;;;;5111108;28;20775;-82
2024/01/18 13:12:13;;;;;;;4.27;2.10;;;;;;;;;;5111300;28;20234;-82
2024/01/18 13:14:40;;;;;;;5.27;1.53;;;;;;;;;;5111199;28;20193;-82
2024/01/18 13:17:09;;;;;;;4.07;1.33;;;;;;;;;;5111429;28;20190;-81
2024/01/18 13:19:40;;;;;;;6.03;1.50;;;;;;;;;;5113556;28;20284;-81
2024/01/18 13:22:07;;;;;;;6.40;1.30;;;;;;;;;;5116003;27;20676;-81
2024/01/18 13:24:34;;;;;;;3.67;1.27;;;;;;;;;;5115018;28;20190;-82
2024/01/18 13:27:04;;;;;;;5.07;1.33;;;;;;;;;;5114826;27;20204;-81
2024/01/18 13:29:31;;;;;;;7.30;1.33;;;;;;;;;;5115405;28;20673;-82
2024/01/18 13:31:59;;;;;;;1.53;0.80;;;;;;;;;;5115079;28;20232;-82
2024/01/18 13:34:29;;;;;;;5.87;1.23;;;;;;;;;;5115024;28;20682;-82
2024/01/18 13:36:57;;;;;;;3.00;0.80;;;;;;;;;;5115042;28;20226;-81
2024/01/18 13:39:24;;;;;;;4.63;0.80;;;;;;;;;;5114981;28;20205;-81
2024/01/18 13:41:51;;;;;;;1.87;0.70;;;;;;;;;;5114796;28;20225;-82
2024/01/18 13:44:18;;;;;;;6.00;1.00;;;;;;;;;;5115023;28;20293;-83
2024/01/18 13:46:46;;;;;;;4.57;1.07;;;;;;;;;;5115479;28;20250;-82
2024/01/18 13:49:13;;;;;;;5.33;0.77;;;;;;;;;;5114826;28;20247;-82
2024/01/18 13:51:41;;;;;;;3.80;0.80;;;;;;;;;;5114758;28;20257;-81
2024/01/18 13:54:09;;;;;;;5.80;1.00;;;;;;;;;;5114805;28;20194;-83
2024/01/18 13:56:36;;;;;;;5.23;0.80;;;;;;;;;;5114426;28;20650;-82
2024/01/18 13:59:03;;;;;;;3.17;0.67;;;;;;;;;;5114212;28;20194;-83
2024/01/18 14:01:30;;;;;;;2.27;0.70;;;;;;;;;;5115087;28;20225;-83
2024/01/18 14:03:58;;;;;;;4.67;0.67;;;;;;;;;;5114543;28;20251;-82
2024/01/18 14:06:25;;;;;;;2.07;0.60;;;;;;;;;;5114363;28;20256;-81
2024/01/18 14:08:54;;;;;;;2.73;0.70;;;;;;;;;;5114161;28;20236;-82
2024/01/18 14:11:22;;;;;;;2.10;0.73;;;;;;;;;;5114028;28;20260;-83
2024/01/18 14:13:49;;;;;;;3.73;1.23;;;;;;;;;;5114555;28;20260;-82
2024/01/18 14:16:16;;;;;;;3.10;0.80;;;;;;;;;;5114257;28;20754;-82
2024/01/18 14:18:43;;;;;;;2.17;0.50;;;;;;;;;;5114230;28;20578;-83
2024/01/18 14:21:11;;;;;;;1.13;0.40;;;;;;;;;;5114218;28;20293;-83
2024/01/18 14:23:38;;;;;;;1.10;0.40;;;;;;;;;;5114061;27;20302;-83
2024/01/18 14:26:07;;;;;;;1.43;0.50;;;;;;;;;;5114282;28;20225;-83
2024/01/18 14:28:34;;;;;;;4.07;0.80;;;;;;;;;;5114297;28;20220;-82
2024/01/18 14:31:01;;;;;;;3.07;0.80;;;;;;;;;;5113730;28;20725;-82
2024/01/18 14:33:29;;;;;;;1.93;0.70;;;;;;;;;;5114076;28;20201;-82
2024/01/18 14:35:56;;;;;;;1.67;0.50;;;;;;;;;;5113726;28;20685;-81